createdAt,value
2022-08-29T00:00:17.840Z,101239.75
2022-08-29T00:02:47.952Z,101247.66
2022-08-29T00:05:15.297Z,101240.22
2022-08-29T00:07:41.797Z,101232.34
2022-08-29T00:10:09.525Z,101235.56
2022-08-29T00:12:36.845Z,101227.28
2022-08-29T00:15:06.590Z,101234.06
2022-08-29T00:17:33.073Z,101234.22
2022-08-29T00:19:59.903Z,101234.41
2022-08-29T00:22:26.390Z,101235.41
2022-08-29T00:24:53.094Z,101236.56
2022-08-29T00:27:19.545Z,101237.59
2022-08-29T00:29:46.034Z,101233.38
2022-08-29T00:32:12.668Z,101230.88
2022-08-29T00:34:39.203Z,101235.06
2022-08-29T00:37:05.734Z,101239.47
2022-08-29T00:39:33.010Z,101237.41
2022-08-29T00:41:59.584Z,101246.88
2022-08-29T00:44:26.862Z,101232.75
2022-08-29T00:46:57.172Z,101234.75
2022-08-29T00:49:29.569Z,101236.47
2022-08-29T00:51:58.780Z,101229.91
2022-08-29T00:54:27.123Z,101231.06
2022-08-29T00:56:54.923Z,101234.13
2022-08-29T00:59:27.687Z,101234.16
2022-08-29T01:01:55.715Z,101226.56
2022-08-29T01:04:24.197Z,101226.22
2022-08-29T01:07:25.077Z,101227.56
2022-08-29T01:09:52.927Z,101232.13
2022-08-29T01:12:21.484Z,101238.22
2022-08-29T01:15:02.185Z,101240.56
2022-08-29T01:17:33.541Z,101246.50
2022-08-29T01:20:12.825Z,101250.38
2022-08-29T01:23:01.089Z,101249.03
2022-08-29T01:25:31.872Z,101247.19
2022-08-29T01:28:07.693Z,101250.38
2022-08-29T01:30:34.632Z,101258.84
2022-08-29T01:33:01.250Z,101259.31
2022-08-29T01:35:28.625Z,101262.03
2022-08-29T01:37:55.095Z,101258.50
2022-08-29T01:40:21.817Z,101256.81
2022-08-29T01:42:48.420Z,101253.59
2022-08-29T01:45:14.919Z,101260.50
2022-08-29T01:47:41.474Z,101265.06
2022-08-29T01:50:14.484Z,101266.25
2022-08-29T01:52:42.865Z,101264.88
2022-08-29T01:55:09.616Z,101268.28
2022-08-29T01:57:38.830Z,101272.00
2022-08-29T02:00:07.942Z,101267.44
2022-08-29T02:02:34.912Z,101272.66
2022-08-29T02:05:01.620Z,101269.63
2022-08-29T02:07:29.434Z,101271.31
2022-08-29T02:09:56.197Z,101271.50
2022-08-29T02:12:22.723Z,101269.78
2022-08-29T02:14:50.759Z,101267.59
2022-08-29T02:17:18.824Z,101266.09
2022-08-29T02:19:45.992Z,101255.13
2022-08-29T02:22:12.503Z,101259.50
2022-08-29T02:24:39.126Z,101254.28
2022-08-29T02:27:06.001Z,101267.25
2022-08-29T02:29:37.449Z,101262.19
2022-08-29T02:32:07.993Z,101261.53
2022-08-29T02:34:35.704Z,101260.53
2022-08-29T02:37:02.722Z,101259.53
2022-08-29T02:39:30.652Z,101260.88
2022-08-29T02:41:57.556Z,101260.19
2022-08-29T02:44:24.043Z,101251.09
2022-08-29T02:46:50.684Z,101259.16
2022-08-29T02:49:17.248Z,101256.44
2022-08-29T02:51:45.241Z,101262.88
2022-08-29T02:54:12.580Z,101266.22
2022-08-29T02:56:40.017Z,101262.84
2022-08-29T02:59:08.297Z,101271.28
2022-08-29T03:01:38.510Z,101262.50
2022-08-29T03:04:06.150Z,101267.22
2022-08-29T03:06:33.174Z,101262.00
2022-08-29T03:09:00.239Z,101263.19
2022-08-29T03:11:28.535Z,101260.97
2022-08-29T03:13:57.680Z,101267.25
2022-08-29T03:16:25.715Z,101269.56
2022-08-29T03:18:52.411Z,101274.63
2022-08-29T03:21:21.289Z,101261.16
2022-08-29T03:23:49.399Z,101266.38
2022-08-29T03:26:16.635Z,101261.50
2022-08-29T03:28:43.526Z,101269.88
2022-08-29T03:31:10.399Z,101270.94
2022-08-29T03:33:37.257Z,101264.16
2022-08-29T03:36:13.741Z,101267.53
2022-08-29T03:38:46.462Z,101257.25
2022-08-29T03:41:20.344Z,101260.47
2022-08-29T03:43:46.884Z,101256.56
2022-08-29T03:46:13.387Z,101258.63
2022-08-29T03:48:40.115Z,101252.91
2022-08-29T03:51:06.578Z,101257.78
2022-08-29T03:53:33.638Z,101264.47
2022-08-29T03:56:00.285Z,101263.50
2022-08-29T03:58:26.796Z,101265.50
2022-08-29T04:00:53.273Z,101260.63
2022-08-29T04:03:20.305Z,101262.28
2022-08-29T04:05:51.406Z,101263.31
2022-08-29T04:08:21.983Z,101266.84
2022-08-29T04:10:48.481Z,101264.47
2022-08-29T04:13:15.196Z,101262.47
2022-08-29T04:15:42.804Z,101262.28
2022-08-29T04:18:11.119Z,101259.09
2022-08-29T04:20:44.791Z,101263.81
2022-08-29T04:23:13.774Z,101262.84
2022-08-29T04:25:41.049Z,101274.09
2022-08-29T04:28:12.271Z,101266.66
2022-08-29T04:30:40.351Z,101267.53
2022-08-29T04:33:07.163Z,101272.75
2022-08-29T04:35:35.523Z,101270.38
2022-08-29T04:38:02.016Z,101279.16
2022-08-29T04:40:28.698Z,101274.47
2022-08-29T04:42:55.222Z,101279.00
2022-08-29T04:45:22.920Z,101283.38
2022-08-29T04:47:50.008Z,101282.72
2022-08-29T04:50:22.025Z,101283.41
2022-08-29T04:52:49.444Z,101284.66
2022-08-29T04:55:21.525Z,101289.19
2022-08-29T04:57:52.102Z,101285.28
2022-08-29T05:00:22.387Z,101278.56
2022-08-29T05:02:48.932Z,101274.69
2022-08-29T05:05:16.327Z,101270.13
2022-08-29T05:07:43.652Z,101284.09
2022-08-29T05:10:14.649Z,101280.41
2022-08-29T05:12:41.956Z,101286.13
2022-08-29T05:15:08.877Z,101276.72
2022-08-29T05:17:35.475Z,101286.13
2022-08-29T05:20:05.221Z,101295.91
2022-08-29T05:22:31.761Z,101302.47
2022-08-29T05:24:58.416Z,101308.41
2022-08-29T05:27:25.348Z,101295.41
2022-08-29T05:29:52.284Z,101303.69
2022-08-29T05:32:19.519Z,101300.13
2022-08-29T05:34:47.192Z,101296.72
2022-08-29T05:37:16.244Z,101307.69
2022-08-29T05:39:43.389Z,101303.97
2022-08-29T05:42:11.914Z,101298.56
2022-08-29T05:44:40.098Z,101304.63
2022-08-29T05:47:08.965Z,101297.03
2022-08-29T05:49:40.674Z,101293.81
2022-08-29T05:52:07.776Z,101298.06
2022-08-29T05:54:36.751Z,101308.66
2022-08-29T05:57:04.633Z,101306.78
2022-08-29T05:59:31.204Z,101308.16
2022-08-29T06:01:57.927Z,101302.91
2022-08-29T06:04:24.482Z,101309.28
2022-08-29T06:06:50.984Z,101301.09
2022-08-29T06:09:17.517Z,101307.19
2022-08-29T06:11:47.851Z,101311.06
2022-08-29T06:14:15.743Z,101311.75
2022-08-29T06:16:42.339Z,101308.09
2022-08-29T06:19:09.368Z,101302.78
2022-08-29T06:21:36.168Z,101305.22
2022-08-29T06:24:02.881Z,101322.22
2022-08-29T06:26:31.511Z,101321.00
2022-08-29T06:28:58.305Z,101318.13
2022-08-29T06:31:29.089Z,101321.09
2022-08-29T06:33:59.456Z,101328.50
2022-08-29T06:36:27.795Z,101339.31
2022-08-29T06:38:59.527Z,101335.78
2022-08-29T06:41:27.434Z,101335.81
2022-08-29T06:43:56.746Z,101337.34
2022-08-29T06:46:27.261Z,101345.44
2022-08-29T06:48:55.181Z,101340.72
2022-08-29T06:51:22.669Z,101342.09
2022-08-29T06:53:49.895Z,101339.59
2022-08-29T06:56:16.871Z,101340.03
2022-08-29T06:58:43.628Z,101349.00
2022-08-29T07:01:13.277Z,101346.63
2022-08-29T07:03:41.150Z,101350.47
2022-08-29T07:06:08.853Z,101345.03
2022-08-29T07:08:38.043Z,101347.19
2022-08-29T07:11:07.647Z,101347.16
2022-08-29T07:13:35.188Z,101353.84
2022-08-29T07:16:01.983Z,101354.97
2022-08-29T07:18:29.383Z,101358.09
2022-08-29T07:20:55.954Z,101369.41
2022-08-29T07:23:22.767Z,101364.50
2022-08-29T07:25:49.283Z,101361.44
2022-08-29T07:28:15.966Z,101363.00
2022-08-29T07:30:42.742Z,101363.75
2022-08-29T07:33:09.529Z,101365.78
2022-08-29T07:35:36.036Z,101369.78
2022-08-29T07:38:02.574Z,101365.63
2022-08-29T07:40:29.624Z,101375.94
2022-08-29T07:42:56.245Z,101368.00
2022-08-29T07:45:22.992Z,101366.72
2022-08-29T07:47:49.665Z,101367.25
2022-08-29T07:50:17.028Z,101366.72
2022-08-29T07:52:43.742Z,101377.44
2022-08-29T07:55:10.545Z,101379.09
2022-08-29T07:57:39.883Z,101387.47
2022-08-29T08:00:12.235Z,101393.03
2022-08-29T08:02:39.021Z,101385.50
2022-08-29T08:05:07.015Z,101392.63
2022-08-29T08:07:35.125Z,101392.13
2022-08-29T08:10:02.490Z,101393.47
2022-08-29T08:12:29.332Z,101391.88
2022-08-29T08:14:57.027Z,101396.00
2022-08-29T08:17:24.319Z,101397.28
2022-08-29T08:19:50.894Z,101395.06
2022-08-29T08:22:17.470Z,101398.50
2022-08-29T08:24:44.972Z,101396.34
2022-08-29T08:27:11.815Z,101392.25
2022-08-29T08:29:38.348Z,101403.94
2022-08-29T08:32:04.864Z,101404.09
2022-08-29T08:34:35.404Z,101403.69
2022-08-29T08:37:07.465Z,101408.00
2022-08-29T08:39:34.690Z,101413.50
2022-08-29T08:42:11.915Z,101415.91
2022-08-29T08:45:02.001Z,101408.97
2022-08-29T08:47:33.513Z,101419.22
2022-08-29T08:50:12.352Z,101406.34
2022-08-29T08:52:58.904Z,101405.13
2022-08-29T08:55:49.277Z,101413.63
2022-08-29T08:58:28.784Z,101403.34
2022-08-29T09:01:18.919Z,101400.69
2022-08-29T09:04:13.081Z,101400.78
2022-08-29T09:07:03.074Z,101406.16
2022-08-29T09:09:48.121Z,101404.88
2022-08-29T09:12:26.327Z,101403.38
2022-08-29T09:15:02.113Z,101418.13
2022-08-29T09:17:37.047Z,101413.06
2022-08-29T09:20:09.296Z,101411.75
2022-08-29T09:22:36.805Z,101403.19
2022-08-29T09:25:06.901Z,101408.38
2022-08-29T09:27:36.164Z,101411.91
2022-08-29T09:30:13.322Z,101406.75
2022-08-29T09:32:56.322Z,101414.22
2022-08-29T09:35:37.110Z,101410.88
2022-08-29T09:38:25.787Z,101413.31
2022-08-29T09:41:04.843Z,101406.75
2022-08-29T09:43:48.273Z,101412.63
2022-08-29T09:46:24.858Z,101413.63
2022-08-29T09:49:15.196Z,101409.00
2022-08-29T09:51:48.464Z,101414.72
2022-08-29T09:54:17.705Z,101419.50
2022-08-29T09:57:21.445Z,101415.50
2022-08-29T10:00:13.678Z,101413.69
2022-08-29T10:02:43.779Z,101419.94
2022-08-29T10:05:36.566Z,101426.03
2022-08-29T10:08:24.857Z,101426.13
2022-08-29T10:10:55.004Z,101423.16
2022-08-29T10:13:25.809Z,101428.38
2022-08-29T10:16:01.687Z,101426.47
2022-08-29T10:18:28.790Z,101422.00
2022-08-29T10:21:01.323Z,101422.91
2022-08-29T10:23:43.029Z,101422.06
2022-08-29T10:26:32.502Z,101425.34
2022-08-29T10:29:10.856Z,101419.09
2022-08-29T10:31:51.558Z,101410.50
2022-08-29T10:34:27.198Z,101420.19
2022-08-29T10:37:30.463Z,101419.28
2022-08-29T10:40:10.162Z,101424.50
2022-08-29T10:42:44.671Z,101427.59
2022-08-29T10:45:22.825Z,101434.38
2022-08-29T10:48:03.084Z,101429.81
2022-08-29T10:50:53.077Z,101435.78
2022-08-29T10:53:27.855Z,101432.69
2022-08-29T10:55:58.931Z,101439.00
2022-08-29T10:58:47.071Z,101431.41
2022-08-29T11:01:29.544Z,101434.47
2022-08-29T11:04:22.999Z,101425.63
2022-08-29T11:06:56.891Z,101429.59
2022-08-29T11:09:35.285Z,101427.75
2022-08-29T11:12:17.725Z,101426.50
2022-08-29T11:15:15.628Z,101418.88
2022-08-29T11:17:44.416Z,101416.56
2022-08-29T11:20:24.210Z,101416.44
2022-08-29T11:22:58.150Z,101423.19
2022-08-29T11:25:24.911Z,101410.66
2022-08-29T11:28:01.194Z,101411.66
2022-08-29T11:30:42.632Z,101409.63
2022-08-29T11:33:17.793Z,101411.97
2022-08-29T11:35:55.598Z,101418.25
2022-08-29T11:38:54.592Z,101421.84
2022-08-29T11:41:29.732Z,101412.22
2022-08-29T11:44:29.616Z,101424.34
2022-08-29T11:46:57.227Z,101419.50
2022-08-29T11:49:26.882Z,101416.59
2022-08-29T11:51:59.850Z,101431.38
2022-08-29T11:54:26.627Z,101421.63
2022-08-29T11:57:02.290Z,101424.84
2022-08-29T11:59:48.127Z,101417.69
2022-08-29T12:02:33.125Z,101427.38
2022-08-29T12:05:17.731Z,101425.38
2022-08-29T12:08:33.601Z,101420.88
2022-08-29T12:10:59.912Z,101408.88
2022-08-29T12:13:45.027Z,101417.00
2022-08-29T12:16:14.005Z,101414.69
2022-08-29T12:18:54.806Z,101410.22
2022-08-29T12:21:36.682Z,101409.69
2022-08-29T12:24:36.686Z,101405.88
2022-08-29T12:27:04.056Z,101403.00
2022-08-29T12:29:44.795Z,101411.50
2022-08-29T12:32:35.523Z,101406.13
2022-08-29T12:35:11.383Z,101404.66
2022-08-29T12:37:51.499Z,101399.97
2022-08-29T12:40:44.740Z,101402.03
2022-08-29T12:43:36.081Z,101390.63
2022-08-29T12:46:10.143Z,101393.63
2022-08-29T12:48:46.273Z,101393.22
2022-08-29T12:51:32.988Z,101386.22
2022-08-29T12:53:59.745Z,101389.91
2022-08-29T12:56:26.338Z,101385.53
2022-08-29T12:58:52.806Z,101378.41
2022-08-29T13:01:25.517Z,101390.34
2022-08-29T13:04:12.111Z,101385.78
2022-08-29T13:06:56.686Z,101388.28
2022-08-29T13:09:39.745Z,101385.44
2022-08-29T13:12:37.122Z,101385.69
2022-08-29T13:15:19.263Z,101387.03
2022-08-29T13:17:49.396Z,101374.38
2022-08-29T13:20:45.988Z,101367.25
2022-08-29T13:23:12.443Z,101369.19
2022-08-29T13:26:12.655Z,101375.06
2022-08-29T13:28:58.882Z,101370.97
2022-08-29T13:31:33.396Z,101373.53
2022-08-29T13:34:20.534Z,101370.91
2022-08-29T13:36:49.377Z,101363.75
2022-08-29T13:39:17.014Z,101368.38
2022-08-29T13:42:03.222Z,101369.81
2022-08-29T13:44:44.739Z,101366.34
2022-08-29T13:47:19.052Z,101367.34
2022-08-29T13:49:46.235Z,101361.59
2022-08-29T13:52:14.028Z,101358.22
2022-08-29T13:54:42.368Z,101355.56
2022-08-29T13:57:15.047Z,101350.59
2022-08-29T13:59:41.722Z,101355.22
2022-08-29T14:02:10.166Z,101344.50
2022-08-29T14:04:39.760Z,101351.72
2022-08-29T14:07:09.115Z,101361.13
2022-08-29T14:09:39.201Z,101347.78
2022-08-29T14:12:06.740Z,101347.44
2022-08-29T14:14:33.498Z,101344.00
2022-08-29T14:17:00.689Z,101343.59
2022-08-29T14:19:29.169Z,101347.91
2022-08-29T14:21:56.027Z,101346.94
2022-08-29T14:24:23.023Z,101340.34
2022-08-29T14:27:01.730Z,101344.44
2022-08-29T14:29:33.732Z,101340.38
2022-08-29T14:32:02.897Z,101341.56
2022-08-29T14:34:32.253Z,101339.66
2022-08-29T14:36:59.193Z,101336.19
2022-08-29T14:39:26.428Z,101338.47
2022-08-29T14:41:53.714Z,101339.91
2022-08-29T14:44:21.864Z,101345.69
2022-08-29T14:46:48.650Z,101341.56
2022-08-29T14:49:15.283Z,101341.25
2022-08-29T14:51:42.073Z,101334.97
2022-08-29T14:54:08.670Z,101339.97
2022-08-29T14:56:48.075Z,101335.78
2022-08-29T14:59:15.792Z,101337.47
2022-08-29T15:01:42.450Z,101334.44
2022-08-29T15:04:09.060Z,101335.13
2022-08-29T15:06:38.234Z,101337.91
2022-08-29T15:09:05.074Z,101329.56
2022-08-29T15:11:31.638Z,101330.22
2022-08-29T15:14:03.548Z,101334.31
2022-08-29T15:16:31.835Z,101336.94
2022-08-29T15:19:44.801Z,101329.53
2022-08-29T15:21:45.198Z,101332.63
2022-08-29T15:24:11.852Z,101323.22
2022-08-29T15:26:38.506Z,101326.88
2022-08-29T15:29:05.623Z,101318.56
2022-08-29T15:31:32.233Z,101324.00
2022-08-29T15:33:58.788Z,101315.69
2022-08-29T15:36:25.373Z,101323.94
2022-08-29T15:38:51.856Z,101314.19
2022-08-29T15:41:18.466Z,101318.84
2022-08-29T15:43:45.180Z,101313.53
2022-08-29T15:46:11.917Z,101315.31
2022-08-29T15:48:38.506Z,101320.66
2022-08-29T15:51:05.053Z,101315.09
2022-08-29T15:53:31.816Z,101314.03
2022-08-29T15:55:58.403Z,101316.81
2022-08-29T15:58:25.122Z,101308.72
2022-08-29T16:00:51.705Z,101311.50
2022-08-29T16:03:18.186Z,101305.56
2022-08-29T16:05:44.720Z,101305.56
2022-08-29T16:08:16.551Z,101296.91
2022-08-29T16:10:44.725Z,101300.44
2022-08-29T16:13:11.684Z,101307.56
2022-08-29T16:15:38.763Z,101315.38
2022-08-29T16:18:06.035Z,101314.59
2022-08-29T16:20:33.982Z,101308.09
2022-08-29T16:23:00.809Z,101309.75
2022-08-29T16:25:29.011Z,101314.19
2022-08-29T16:27:55.539Z,101312.66
2022-08-29T16:30:22.230Z,101300.09
2022-08-29T16:32:49.963Z,101314.00
2022-08-29T16:35:17.957Z,101315.50
2022-08-29T16:37:44.912Z,101310.47
2022-08-29T16:40:14.668Z,101310.66
2022-08-29T16:42:41.634Z,101310.69
2022-08-29T16:45:22.120Z,101310.03
2022-08-29T16:47:48.631Z,101316.13
2022-08-29T16:50:15.123Z,101311.38
2022-08-29T16:52:41.625Z,101319.53
2022-08-29T16:55:08.756Z,101317.00
2022-08-29T16:57:35.845Z,101318.31
2022-08-29T17:00:07.879Z,101313.84
2022-08-29T17:02:34.447Z,101308.41
2022-08-29T17:05:01.062Z,101309.69
2022-08-29T17:07:33.328Z,101313.47
2022-08-29T17:10:04.150Z,101321.63
2022-08-29T17:12:30.705Z,101309.47
2022-08-29T17:14:57.184Z,101316.84
2022-08-29T17:17:23.783Z,101313.91
2022-08-29T17:19:50.321Z,101322.06
2022-08-29T17:22:18.034Z,101319.75
2022-08-29T17:24:46.525Z,101317.84
2022-08-29T17:27:17.107Z,101316.78
2022-08-29T17:29:47.261Z,101311.78
2022-08-29T17:32:14.453Z,101316.19
2022-08-29T17:34:42.419Z,101319.31
2022-08-29T17:37:10.477Z,101320.78
2022-08-29T17:39:40.018Z,101315.97
2022-08-29T17:42:06.989Z,101318.88
2022-08-29T17:44:34.882Z,101318.47
2022-08-29T17:47:01.388Z,101310.69
2022-08-29T17:49:28.329Z,101316.38
2022-08-29T17:51:55.365Z,101314.88
2022-08-29T17:54:24.053Z,101309.78
2022-08-29T17:56:55.506Z,101311.69
2022-08-29T17:59:23.416Z,101313.97
2022-08-29T18:01:50.469Z,101310.41
2022-08-29T18:04:17.056Z,101305.78
2022-08-29T18:06:43.689Z,101314.34
2022-08-29T18:09:10.845Z,101321.03
2022-08-29T18:11:43.166Z,101329.38
2022-08-29T18:14:10.782Z,101336.50
2022-08-29T18:16:38.144Z,101331.06
2022-08-29T18:19:05.508Z,101328.53
2022-08-29T18:21:33.022Z,101330.38
2022-08-29T18:24:00.265Z,101336.44
2022-08-29T18:26:27.554Z,101342.28
2022-08-29T18:28:54.855Z,101345.56
2022-08-29T18:31:22.183Z,101345.19
2022-08-29T18:34:03.916Z,101341.59
2022-08-29T18:36:30.854Z,101346.81
2022-08-29T18:38:57.461Z,101349.75
2022-08-29T18:41:23.998Z,101355.84
2022-08-29T18:43:51.700Z,101357.72
2022-08-29T18:46:18.757Z,101367.94
2022-08-29T18:48:46.321Z,101359.50
2022-08-29T18:51:13.456Z,101370.94
2022-08-29T18:53:40.461Z,101367.56
2022-08-29T18:56:07.362Z,101373.16
2022-08-29T18:58:35.118Z,101370.50
2022-08-29T19:01:14.399Z,101372.56
2022-08-29T19:03:41.664Z,101370.44
2022-08-29T19:06:08.145Z,101381.50
2022-08-29T19:08:34.638Z,101381.72
2022-08-29T19:11:06.574Z,101378.72
2022-08-29T19:13:35.354Z,101381.22
2022-08-29T19:16:04.494Z,101387.47
2022-08-29T19:18:31.921Z,101387.69
2022-08-29T19:21:06.260Z,101386.59
2022-08-29T19:23:41.523Z,101394.28
2022-08-29T19:26:11.739Z,101397.84
2022-08-29T19:28:41.231Z,101398.06
2022-08-29T19:31:07.795Z,101399.59
2022-08-29T19:33:35.640Z,101405.75
2022-08-29T19:36:05.448Z,101402.19
2022-08-29T19:38:32.200Z,101404.34
2022-08-29T19:40:59.198Z,101399.38
2022-08-29T19:43:29.053Z,101402.72
2022-08-29T19:45:57.486Z,101397.88
2022-08-29T19:48:26.192Z,101403.03
2022-08-29T19:50:53.942Z,101407.84
2022-08-29T19:53:26.294Z,101400.06
2022-08-29T19:55:55.114Z,101405.84
2022-08-29T19:58:22.773Z,101407.47
2022-08-29T20:00:57.723Z,101412.31
2022-08-29T20:03:24.320Z,101420.47
2022-08-29T20:05:50.820Z,101422.06
2022-08-29T20:08:17.518Z,101426.38
2022-08-29T20:10:49.600Z,101432.69
2022-08-29T20:13:17.208Z,101433.25
2022-08-29T20:15:43.907Z,101425.59
2022-08-29T20:18:10.732Z,101428.69
2022-08-29T20:20:39.994Z,101430.03
2022-08-29T20:23:07.534Z,101428.06
2022-08-29T20:25:34.762Z,101427.59
2022-08-29T20:28:01.425Z,101436.22
2022-08-29T20:30:30.466Z,101430.88
2022-08-29T20:32:57.169Z,101428.06
2022-08-29T20:35:42.827Z,101434.53
2022-08-29T20:38:10.079Z,101440.94
2022-08-29T20:40:39.463Z,101439.88
2022-08-29T20:43:06.896Z,101450.84
2022-08-29T20:45:33.869Z,101444.19
2022-08-29T20:48:01.771Z,101448.22
2022-08-29T20:52:55.733Z,101455.38
2022-08-29T20:55:22.976Z,101456.34
2022-08-29T20:57:49.489Z,101457.38
2022-08-29T21:00:16.450Z,101460.41
2022-08-29T21:03:01.329Z,101466.72
2022-08-29T21:05:43.104Z,101458.19
2022-08-29T21:08:15.077Z,101465.25
2022-08-29T21:10:42.651Z,101469.41
2022-08-29T21:13:09.732Z,101456.91
2022-08-29T21:15:41.154Z,101466.91
2022-08-29T21:18:09.426Z,101465.75
2022-08-29T21:20:37.846Z,101468.94
2022-08-29T21:23:12.942Z,101462.88
2022-08-29T21:25:40.708Z,101455.75
2022-08-29T21:28:08.818Z,101459.50
2022-08-29T21:30:37.153Z,101463.31
2022-08-29T21:33:04.117Z,101455.63
2022-08-29T21:35:30.576Z,101462.19
2022-08-29T21:37:57.086Z,101458.72
2022-08-29T21:40:25.940Z,101458.72
2022-08-29T21:42:56.355Z,101465.22
2022-08-29T21:45:23.382Z,101462.81
2022-08-29T21:47:51.055Z,101464.38
2022-08-29T21:50:18.885Z,101466.81
2022-08-29T21:52:45.752Z,101461.69
2022-08-29T21:55:12.346Z,101460.19
2022-08-29T21:57:59.183Z,101468.69
2022-08-29T22:00:32.371Z,101470.25
2022-08-29T22:03:01.616Z,101473.44
2022-08-29T22:05:30.935Z,101482.41
2022-08-29T22:07:58.532Z,101479.06
2022-08-29T22:10:28.367Z,101487.47
2022-08-29T22:12:55.026Z,101488.66
2022-08-29T22:15:40.228Z,101485.78
2022-08-29T22:18:06.976Z,101491.22
2022-08-29T22:20:33.704Z,101492.97
2022-08-29T22:23:00.272Z,101490.25
2022-08-29T22:25:26.925Z,101491.44
2022-08-29T22:27:53.390Z,101491.81
2022-08-29T22:30:20.049Z,101487.78
2022-08-29T22:32:52.927Z,101477.50
2022-08-29T22:35:20.995Z,101483.09
2022-08-29T22:37:47.717Z,101483.88
2022-08-29T22:40:17.297Z,101485.75
2022-08-29T22:42:45.053Z,101483.13
2022-08-29T22:45:13.105Z,101493.56
2022-08-29T22:47:41.810Z,101485.75
2022-08-29T22:50:14.266Z,101485.63
2022-08-29T22:52:40.830Z,101480.97
2022-08-29T22:55:10.204Z,101483.22
2022-08-29T22:57:36.752Z,101483.56
2022-08-29T23:00:06.065Z,101490.66
2022-08-29T23:02:33.524Z,101496.47
2022-08-29T23:05:00.225Z,101486.47
2022-08-29T23:07:26.751Z,101498.50
2022-08-29T23:09:53.281Z,101489.53
2022-08-29T23:12:20.435Z,101492.88
2022-08-29T23:14:46.933Z,101495.47
2022-08-29T23:17:15.471Z,101498.69
2022-08-29T23:19:42.338Z,101493.41
2022-08-29T23:22:11.022Z,101490.91
2022-08-29T23:24:39.070Z,101494.59
2022-08-29T23:27:07.297Z,101489.34
2022-08-29T23:29:36.458Z,101484.13
2022-08-29T23:32:08.700Z,101483.94
2022-08-29T23:34:35.341Z,101478.81
2022-08-29T23:37:01.914Z,101487.09
2022-08-29T23:39:28.427Z,101480.22
2022-08-29T23:41:55.196Z,101481.94
2022-08-29T23:44:21.707Z,101481.25
2022-08-29T23:46:48.291Z,101470.09
2022-08-29T23:49:14.849Z,101475.16
2022-08-29T23:51:41.384Z,101481.41
2022-08-29T23:54:08.306Z,101470.78
2022-08-29T23:56:35.070Z,101472.16
2022-08-29T23:59:01.767Z,101480.28
